createdAt,value
2023-05-15T00:04:23.230Z,7.90
2023-05-15T00:09:24.922Z,8.30
2023-05-15T00:14:26.722Z,7.17
2023-05-15T00:19:29.718Z,7.97
2023-05-15T00:24:31.413Z,8.03
2023-05-15T00:29:33.094Z,8.90
2023-05-15T00:34:36.438Z,8.53
2023-05-15T00:39:38.774Z,9.07
2023-05-15T00:44:41.096Z,8.27
2023-05-15T00:49:44.415Z,8.60
2023-05-15T00:54:46.193Z,8.03
2023-05-15T00:59:48.006Z,9.70
2023-05-15T01:04:51.137Z,16.20
2023-05-15T01:09:52.821Z,9.83
2023-05-15T01:14:54.558Z,8.93
2023-05-15T01:19:57.887Z,9.00
2023-05-15T01:25:16.441Z,9.10
2023-05-15T01:30:22.276Z,9.87
2023-05-15T01:35:27.891Z,9.60
2023-05-15T01:40:29.835Z,9.33
2023-05-15T01:45:32.912Z,10.10
2023-05-15T01:50:34.922Z,9.90
2023-05-15T01:55:36.828Z,10.10
2023-05-15T02:00:39.828Z,9.70
2023-05-15T02:05:41.657Z,10.63
2023-05-15T02:10:43.629Z,10.50
2023-05-15T02:15:46.782Z,11.00
2023-05-15T02:20:48.705Z,11.00
2023-05-15T02:25:58.633Z,11.27
2023-05-15T02:31:05.661Z,10.60
2023-05-15T02:36:09.057Z,10.33
2023-05-15T02:41:10.952Z,10.27
2023-05-15T02:46:14.731Z,11.90
2023-05-15T02:51:16.503Z,11.03
2023-05-15T02:56:18.208Z,11.20
2023-05-15T03:01:21.495Z,12.13
2023-05-15T03:06:23.352Z,11.50
2023-05-15T03:11:25.245Z,12.37
2023-05-15T03:16:28.400Z,10.70
2023-05-15T03:21:30.143Z,10.43
2023-05-15T03:26:31.821Z,12.73
2023-05-15T03:31:34.923Z,13.40
2023-05-15T03:36:36.713Z,12.70
2023-05-15T03:41:38.388Z,12.20
2023-05-15T03:46:41.457Z,12.47
2023-05-15T03:51:47.180Z,11.53
2023-05-15T03:56:49.347Z,12.37
2023-05-15T04:02:03.428Z,13.17
2023-05-15T04:07:07.417Z,12.70
2023-05-15T04:12:09.347Z,12.10
2023-05-15T04:17:12.320Z,12.67
2023-05-15T04:22:14.035Z,12.40
2023-05-15T04:27:15.798Z,13.13
2023-05-15T04:32:18.978Z,11.90
2023-05-15T04:37:20.647Z,11.53
2023-05-15T04:42:22.388Z,12.30
2023-05-15T04:47:25.572Z,12.50
2023-05-15T04:52:27.243Z,12.73
2023-05-15T04:57:29.453Z,12.80
2023-05-15T05:02:32.561Z,13.67
2023-05-15T05:07:34.237Z,13.60
2023-05-15T05:12:35.959Z,13.80
2023-05-15T05:17:38.996Z,13.20
2023-05-15T05:22:40.845Z,13.27
2023-05-15T05:27:43.044Z,12.90
2023-05-15T05:32:46.184Z,14.23
2023-05-15T05:37:47.906Z,13.50
2023-05-15T05:42:49.590Z,14.50
2023-05-15T05:47:52.694Z,13.83
2023-05-15T05:52:54.359Z,14.80
2023-05-15T05:57:56.050Z,14.20
2023-05-15T06:02:59.715Z,14.40
2023-05-15T06:08:04.013Z,15.00
2023-05-15T06:13:05.934Z,14.10
2023-05-15T06:18:09.023Z,14.63
2023-05-15T06:23:10.764Z,13.33
2023-05-15T06:28:12.391Z,13.30
2023-05-15T06:33:15.399Z,13.13
2023-05-15T06:38:17.103Z,13.73
2023-05-15T06:43:18.835Z,13.80
2023-05-15T06:48:21.830Z,12.57
2023-05-15T06:53:23.570Z,14.03
2023-05-15T06:58:25.312Z,15.00
2023-05-15T07:03:28.321Z,13.30
2023-05-15T07:08:30.002Z,13.70
2023-05-15T07:13:31.664Z,13.40
2023-05-15T07:18:34.743Z,12.53
2023-05-15T07:23:36.523Z,11.90
2023-05-15T07:28:38.247Z,13.10
2023-05-15T07:33:41.213Z,12.97
2023-05-15T07:38:42.873Z,12.73
2023-05-15T07:43:44.602Z,12.70
2023-05-15T07:48:47.592Z,13.17
2023-05-15T07:53:49.305Z,11.90
2023-05-15T07:58:51.010Z,12.03
2023-05-15T08:03:54.078Z,11.47
2023-05-15T08:08:55.794Z,10.80
2023-05-15T08:13:57.518Z,10.07
2023-05-15T08:19:04.650Z,10.67
2023-05-15T08:24:06.823Z,9.57
2023-05-15T08:29:08.521Z,9.10
2023-05-15T08:34:11.521Z,8.90
2023-05-15T08:39:13.208Z,10.40
2023-05-15T08:44:15.036Z,10.20
2023-05-15T08:49:21.743Z,9.27
2023-05-15T08:54:23.411Z,9.47
2023-05-15T08:59:25.087Z,8.80
2023-05-15T09:04:28.621Z,5.90
2023-05-15T09:09:30.796Z,6.00
2023-05-15T09:14:32.634Z,5.80
2023-05-15T09:19:35.840Z,5.30
2023-05-15T09:24:37.831Z,4.67
2023-05-15T09:29:39.871Z,4.47
2023-05-15T09:34:43.984Z,4.70
2023-05-15T09:39:46.165Z,4.40
2023-05-15T09:44:47.840Z,4.70
2023-05-15T09:49:50.953Z,4.23
2023-05-15T09:54:54.102Z,4.67
2023-05-15T09:59:55.763Z,4.17
2023-05-15T10:04:58.938Z,3.70
2023-05-15T10:10:01.047Z,3.87
2023-05-15T10:15:02.951Z,3.53
2023-05-15T10:20:07.420Z,3.93
2023-05-15T10:25:12.996Z,3.87
2023-05-15T10:30:15.644Z,4.33
2023-05-15T10:35:18.852Z,4.53
2023-05-15T10:40:20.534Z,4.20
2023-05-15T10:45:22.382Z,4.43
2023-05-15T10:50:25.679Z,4.17
2023-05-15T10:55:27.589Z,4.30
2023-05-15T11:00:31.253Z,4.60
2023-05-15T11:05:49.783Z,4.30
2023-05-15T11:10:51.916Z,4.53
2023-05-15T11:15:53.745Z,4.13
2023-05-15T11:21:08.917Z,4.60
2023-05-15T11:26:12.395Z,4.30
2023-05-15T11:31:14.244Z,4.50
2023-05-15T11:36:18.393Z,4.30
2023-05-15T11:41:21.606Z,4.53
2023-05-15T11:46:23.399Z,4.40
2023-05-15T11:51:26.890Z,4.50
2023-05-15T11:56:28.893Z,4.10
2023-05-15T12:01:39.164Z,4.40
2023-05-15T12:06:42.341Z,4.47
2023-05-15T12:11:49.147Z,4.70
2023-05-15T12:16:51.594Z,5.33
2023-05-15T12:21:54.639Z,4.93
2023-05-15T12:26:57.482Z,5.30
2023-05-15T12:31:59.524Z,4.33
2023-05-15T12:37:02.624Z,5.40
2023-05-15T12:42:04.692Z,5.13
2023-05-15T12:47:06.379Z,5.40
2023-05-15T12:52:10.460Z,5.60
2023-05-15T12:57:12.644Z,5.90
2023-05-15T13:02:14.390Z,5.30
2023-05-15T13:07:17.390Z,5.03
2023-05-15T13:12:19.129Z,5.07
2023-05-15T13:17:21.862Z,5.90
2023-05-15T13:22:24.942Z,5.50
2023-05-15T13:27:27.134Z,5.43
2023-05-15T13:32:28.897Z,4.90
2023-05-15T13:37:32.054Z,5.30
2023-05-15T13:42:33.724Z,4.40
2023-05-15T13:47:35.584Z,4.70
2023-05-15T13:52:38.953Z,4.70
2023-05-15T13:57:41.132Z,4.53
2023-05-15T14:02:43.488Z,4.73
2023-05-15T14:07:46.691Z,4.00
2023-05-15T14:12:48.361Z,4.53
2023-05-15T14:17:50.585Z,4.50
2023-05-15T14:22:53.878Z,4.40
2023-05-15T14:27:55.801Z,4.10
2023-05-15T14:32:57.530Z,4.30
2023-05-15T14:38:00.640Z,4.73
2023-05-15T14:43:02.296Z,4.60
2023-05-15T14:48:04.339Z,8.97
2023-05-15T14:53:07.415Z,9.77
2023-05-15T14:58:11.224Z,7.60
2023-05-15T15:03:12.955Z,8.13
2023-05-15T15:08:16.016Z,7.30
2023-05-15T15:13:17.696Z,7.90
2023-05-15T15:18:20.931Z,7.00
2023-05-15T15:23:24.376Z,7.63
2023-05-15T15:28:26.423Z,8.40
2023-05-15T15:33:28.185Z,7.43
2023-05-15T15:38:31.244Z,7.53
2023-05-15T15:43:32.913Z,7.80
2023-05-15T15:48:34.542Z,6.60
2023-05-15T15:53:37.930Z,5.90
2023-05-15T15:58:39.598Z,4.23
2023-05-15T16:03:41.350Z,3.93
2023-05-15T16:08:44.379Z,4.20
2023-05-15T16:13:46.053Z,3.67
2023-05-15T16:18:47.820Z,4.30
2023-05-15T16:23:51.113Z,4.23
2023-05-15T16:28:52.892Z,4.20
2023-05-15T16:33:54.658Z,4.40
2023-05-15T16:38:57.734Z,4.00
2023-05-15T16:43:59.410Z,4.70
2023-05-15T16:49:01.145Z,5.37
2023-05-15T16:54:04.556Z,5.57
2023-05-15T16:59:06.374Z,5.73
2023-05-15T17:04:08.196Z,5.70
2023-05-15T17:09:11.646Z,5.77
2023-05-15T17:14:13.483Z,5.90
2023-05-15T17:19:15.222Z,6.23
2023-05-15T17:24:18.370Z,5.90
2023-05-15T17:29:20.021Z,6.70
2023-05-15T17:34:21.698Z,8.27
2023-05-15T17:39:24.936Z,9.20
2023-05-15T17:44:29.540Z,8.27
2023-05-15T17:49:31.233Z,9.13
2023-05-15T17:54:34.479Z,9.07
2023-05-15T17:59:36.162Z,8.70
2023-05-15T18:04:37.844Z,8.40
2023-05-15T18:09:40.918Z,8.83
2023-05-15T18:14:42.576Z,8.10
2023-05-15T18:19:44.803Z,8.40
2023-05-15T18:24:47.893Z,9.13
2023-05-15T18:29:49.675Z,9.10
2023-05-15T18:34:51.347Z,9.50
2023-05-15T18:39:58.617Z,10.00
2023-05-15T18:45:00.280Z,9.50
2023-05-15T18:50:02.086Z,9.77
2023-05-15T18:55:06.717Z,10.50
2023-05-15T19:00:09.231Z,10.53
2023-05-15T19:05:11.199Z,10.37
2023-05-15T19:10:14.463Z,11.03
2023-05-15T19:15:17.952Z,10.63
2023-05-15T19:20:20.226Z,10.80
2023-05-15T19:25:23.714Z,11.40
2023-05-15T19:30:25.549Z,11.13
2023-05-15T19:35:27.503Z,11.60
2023-05-15T19:40:30.629Z,11.37
2023-05-15T19:45:32.390Z,11.63
2023-05-15T19:50:34.119Z,11.03
2023-05-15T19:55:37.222Z,13.10
2023-05-15T20:00:39.875Z,11.10
2023-05-15T20:05:41.644Z,10.00
2023-05-15T20:10:44.708Z,10.50
2023-05-15T20:15:46.568Z,9.73
2023-05-15T20:20:48.322Z,10.10
2023-05-15T20:25:51.612Z,9.83
2023-05-15T20:30:56.506Z,10.30
2023-05-15T20:35:58.523Z,9.27
2023-05-15T20:41:01.638Z,8.80
2023-05-15T20:46:03.374Z,9.33
2023-05-15T20:51:05.418Z,9.10
2023-05-15T20:56:08.709Z,9.53
2023-05-15T21:01:10.485Z,9.27
2023-05-15T21:06:13.535Z,9.83
2023-05-15T21:11:16.821Z,9.77
2023-05-15T21:16:18.671Z,9.63
2023-05-15T21:21:20.557Z,10.53
2023-05-15T21:26:23.690Z,10.33
2023-05-15T21:31:26.381Z,9.70
2023-05-15T21:36:28.126Z,11.43
2023-05-15T21:41:31.181Z,11.40
2023-05-15T21:46:33.013Z,10.20
2023-05-15T21:51:34.806Z,11.13
2023-05-15T21:56:37.877Z,11.20
2023-05-15T22:01:40.882Z,11.27
2023-05-15T22:06:43.685Z,11.83
2023-05-15T22:11:46.776Z,12.50
2023-05-15T22:16:48.586Z,15.10
2023-05-15T22:21:50.552Z,14.07
2023-05-15T22:26:53.636Z,13.83
2023-05-15T22:31:55.948Z,14.20
2023-05-15T22:36:57.690Z,13.90
2023-05-15T22:42:00.782Z,13.50
2023-05-15T22:47:02.487Z,12.77
2023-05-15T22:52:04.916Z,13.57
2023-05-15T22:57:08.737Z,11.70
2023-05-15T23:02:10.507Z,11.30
2023-05-15T23:07:12.236Z,12.00
2023-05-15T23:12:15.334Z,10.70
2023-05-15T23:17:16.993Z,10.33
2023-05-15T23:22:18.703Z,10.50
2023-05-15T23:27:21.758Z,10.10
2023-05-15T23:32:23.445Z,9.73
2023-05-15T23:37:25.798Z,9.07
2023-05-15T23:42:29.782Z,9.03
2023-05-15T23:47:31.569Z,9.00
2023-05-15T23:52:33.253Z,7.23
2023-05-15T23:57:36.411Z,7.47
